sensor_id;sensor_type;location;lat;lon;timestamp;pressure;altitude;pressure_sealevel;temperature;humidity
71567;BME280;59403;47.456;19.120;2022-09-14T00:02:05;99895.37;;;14.89;77.25
71567;BME280;59403;47.456;19.120;2022-09-14T00:04:32;99889.19;;;14.88;77.21
71567;BME280;59403;47.456;19.120;2022-09-14T00:06:59;99892.69;;;14.89;77.11
71567;BME280;59403;47.456;19.120;2022-09-14T00:09:26;99887.75;;;14.86;77.12
71567;BME280;59403;47.456;19.120;2022-09-14T00:11:53;99882.81;;;14.82;77.18
71567;BME280;59403;47.456;19.120;2022-09-14T00:14:21;99885.47;;;14.82;77.17
71567;BME280;59403;47.456;19.120;2022-09-14T00:16:50;99878.06;;;14.78;77.37
71567;BME280;59403;47.456;19.120;2022-09-14T00:19:24;99882.97;;;14.74;77.50
71567;BME280;59403;47.456;19.120;2022-09-14T00:21:53;99880.50;;;14.73;77.55
71567;BME280;59403;47.456;19.120;2022-09-14T00:24:21;99889.91;;;14.69;77.58
71567;BME280;59403;47.456;19.120;2022-09-14T00:26:48;99882.09;;;14.67;77.58
71567;BME280;59403;47.456;19.120;2022-09-14T00:29:15;99891.31;;;14.65;77.79
71567;BME280;59403;47.456;19.120;2022-09-14T00:31:42;99880.44;;;14.66;77.94
71567;BME280;59403;47.456;19.120;2022-09-14T00:34:13;99876.34;;;14.64;77.87
71567;BME280;59403;47.456;19.120;2022-09-14T00:36:42;99864.63;;;14.58;78.03
71567;BME280;59403;47.456;19.120;2022-09-14T00:39:11;99850.84;;;14.55;77.95
71567;BME280;59403;47.456;19.120;2022-09-14T00:41:40;99858.25;;;14.59;77.92
71567;BME280;59403;47.456;19.120;2022-09-14T00:47:08;99850.00;;;14.48;78.96
71567;BME280;59403;47.456;19.120;2022-09-14T00:49:40;99872.09;;;14.42;78.78
71567;BME280;59403;47.456;19.120;2022-09-14T00:52:10;99856.56;;;14.45;78.53
71567;BME280;59403;47.456;19.120;2022-09-14T00:54:40;99856.72;;;14.44;78.68
71567;BME280;59403;47.456;19.120;2022-09-14T00:57:09;99865.53;;;14.44;78.49
71567;BME280;59403;47.456;19.120;2022-09-14T00:59:38;99862.84;;;14.38;78.58
71567;BME280;59403;47.456;19.120;2022-09-14T01:04:44;99857.31;;;14.39;79.25
71567;BME280;59403;47.456;19.120;2022-09-14T01:07:21;99862.22;;;14.36;81.20
71567;BME280;59403;47.456;19.120;2022-09-14T01:09:59;99859.34;;;14.37;82.46
71567;BME280;59403;47.456;19.120;2022-09-14T01:12:33;99852.38;;;14.36;82.60
71567;BME280;59403;47.456;19.120;2022-09-14T01:15:05;99848.50;;;14.39;81.71
71567;BME280;59403;47.456;19.120;2022-09-14T01:17:38;99849.53;;;14.38;80.99
71567;BME280;59403;47.456;19.120;2022-09-14T01:20:18;99856.47;;;14.39;80.28
71567;BME280;59403;47.456;19.120;2022-09-14T01:22:51;99846.00;;;14.31;80.20
71567;BME280;59403;47.456;19.120;2022-09-14T01:25:40;99856.44;;;14.32;80.05
71567;BME280;59403;47.456;19.120;2022-09-14T01:28:15;99840.78;;;14.23;80.29
71567;BME280;59403;47.456;19.120;2022-09-14T01:30:48;99847.09;;;14.22;80.20
71567;BME280;59403;47.456;19.120;2022-09-14T01:33:18;99837.28;;;14.22;79.96
71567;BME280;59403;47.456;19.120;2022-09-14T01:35:51;99837.09;;;14.24;79.77
71567;BME280;59403;47.456;19.120;2022-09-14T01:38:23;99834.81;;;14.21;79.79
71567;BME280;59403;47.456;19.120;2022-09-14T01:40:53;99830.66;;;14.12;80.12
71567;BME280;59403;47.456;19.120;2022-09-14T01:43:25;99833.34;;;14.18;79.86
71567;BME280;59403;47.456;19.120;2022-09-14T01:45:57;99826.59;;;14.16;79.86
71567;BME280;59403;47.456;19.120;2022-09-14T01:48:29;99827.78;;;14.13;79.88
71567;BME280;59403;47.456;19.120;2022-09-14T01:50:59;99828.44;;;14.15;79.74
71567;BME280;59403;47.456;19.120;2022-09-14T01:53:31;99820.00;;;14.12;79.87
71567;BME280;59403;47.456;19.120;2022-09-14T01:56:03;99822.47;;;14.13;79.75
71567;BME280;59403;47.456;19.120;2022-09-14T01:58:36;99814.47;;;14.13;79.57
71567;BME280;59403;47.456;19.120;2022-09-14T02:01:07;99810.75;;;14.08;79.71
71567;BME280;59403;47.456;19.120;2022-09-14T02:03:39;99800.72;;;14.10;79.62
71567;BME280;59403;47.456;19.120;2022-09-14T02:06:11;99810.31;;;14.04;79.85
71567;BME280;59403;47.456;19.120;2022-09-14T02:08:41;99804.53;;;14.01;79.98
71567;BME280;59403;47.456;19.120;2022-09-14T02:11:08;99796.56;;;14.01;80.00
71567;BME280;59403;47.456;19.120;2022-09-14T02:13:36;99802.06;;;13.99;80.29
71567;BME280;59403;47.456;19.120;2022-09-14T02:16:04;99800.06;;;14.01;80.15
71567;BME280;59403;47.456;19.120;2022-09-14T02:18:31;99793.47;;;13.97;80.14
71567;BME280;59403;47.456;19.120;2022-09-14T02:21:01;99789.16;;;13.96;80.14
71567;BME280;59403;47.456;19.120;2022-09-14T02:23:29;99785.66;;;13.96;80.30
71567;BME280;59403;47.456;19.120;2022-09-14T02:25:57;99783.19;;;13.94;80.38
71567;BME280;59403;47.456;19.120;2022-09-14T02:28:24;99782.56;;;13.92;80.46
71567;BME280;59403;47.456;19.120;2022-09-14T02:31:01;99776.56;;;13.84;80.69
71567;BME280;59403;47.456;19.120;2022-09-14T02:33:35;99776.56;;;13.84;80.74
71567;BME280;59403;47.456;19.120;2022-09-14T02:36:12;99782.72;;;13.84;80.95
71567;BME280;59403;47.456;19.120;2022-09-14T02:38:47;99772.63;;;13.80;81.00
71567;BME280;59403;47.456;19.120;2022-09-14T02:41:25;99770.16;;;13.78;80.90
71567;BME280;59403;47.456;19.120;2022-09-14T02:44:03;99765.03;;;13.77;80.98
71567;BME280;59403;47.456;19.120;2022-09-14T02:46:40;99762.19;;;13.78;80.98
71567;BME280;59403;47.456;19.120;2022-09-14T02:49:14;99766.25;;;13.74;81.19
71567;BME280;59403;47.456;19.120;2022-09-14T02:51:49;99766.63;;;13.71;81.57
71567;BME280;59403;47.456;19.120;2022-09-14T02:54:25;99755.19;;;13.71;81.42
71567;BME280;59403;47.456;19.120;2022-09-14T02:56:59;99754.59;;;13.75;81.35
71567;BME280;59403;47.456;19.120;2022-09-14T02:59:26;99746.22;;;13.78;81.03
71567;BME280;59403;47.456;19.120;2022-09-14T03:01:55;99762.38;;;13.77;81.25
71567;BME280;59403;47.456;19.120;2022-09-14T03:04:22;99758.88;;;13.76;81.26
71567;BME280;59403;47.456;19.120;2022-09-14T03:06:49;99763.66;;;13.81;81.30
71567;BME280;59403;47.456;19.120;2022-09-14T03:09:16;99757.69;;;13.79;81.48
71567;BME280;59403;47.456;19.120;2022-09-14T03:11:43;99755.88;;;13.79;81.60
71567;BME280;59403;47.456;19.120;2022-09-14T03:14:11;99746.66;;;13.82;81.56
71567;BME280;59403;47.456;19.120;2022-09-14T03:16:38;99742.41;;;13.87;81.46
71567;BME280;59403;47.456;19.120;2022-09-14T03:19:06;99742.63;;;13.92;81.25
71567;BME280;59403;47.456;19.120;2022-09-14T03:21:37;99740.84;;;13.99;81.15
71567;BME280;59403;47.456;19.120;2022-09-14T03:24:04;99745.78;;;14.02;80.96
71567;BME280;59403;47.456;19.120;2022-09-14T03:26:31;99737.78;;;14.02;80.92
71567;BME280;59403;47.456;19.120;2022-09-14T03:29:01;99747.88;;;14.07;81.08
71567;BME280;59403;47.456;19.120;2022-09-14T03:31:28;99739.88;;;14.07;80.94
71567;BME280;59403;47.456;19.120;2022-09-14T03:33:58;99748.94;;;14.12;80.69
71567;BME280;59403;47.456;19.120;2022-09-14T03:36:28;99753.22;;;14.13;80.56
71567;BME280;59403;47.456;19.120;2022-09-14T03:38:57;99748.09;;;14.12;80.82
71567;BME280;59403;47.456;19.120;2022-09-14T03:41:24;99742.56;;;14.13;80.79
71567;BME280;59403;47.456;19.120;2022-09-14T03:43:52;99739.06;;;14.06;80.74
71567;BME280;59403;47.456;19.120;2022-09-14T03:46:20;99734.19;;;14.16;80.52
71567;BME280;59403;47.456;19.120;2022-09-14T03:48:48;99738.75;;;14.22;80.42
71567;BME280;59403;47.456;19.120;2022-09-14T03:51:16;99745.06;;;14.21;80.62
71567;BME280;59403;47.456;19.120;2022-09-14T03:53:44;99740.78;;;14.20;80.72
71567;BME280;59403;47.456;19.120;2022-09-14T03:56:13;99744.47;;;14.19;80.89
71567;BME280;59403;47.456;19.120;2022-09-14T03:58:40;99743.84;;;14.17;80.95
71567;BME280;59403;47.456;19.120;2022-09-14T04:01:09;99744.25;;;14.14;81.24
71567;BME280;59403;47.456;19.120;2022-09-14T04:03:37;99749.97;;;14.18;81.31
71567;BME280;59403;47.456;19.120;2022-09-14T04:06:04;99751.44;;;14.20;80.97
71567;BME280;59403;47.456;19.120;2022-09-14T04:08:33;99748.53;;;14.15;81.00
71567;BME280;59403;47.456;19.120;2022-09-14T04:11:05;99747.28;;;14.11;81.08
71567;BME280;59403;47.456;19.120;2022-09-14T04:13:33;99748.31;;;14.10;81.10
71567;BME280;59403;47.456;19.120;2022-09-14T04:16:01;99743.81;;;14.11;81.25
71567;BME280;59403;47.456;19.120;2022-09-14T04:18:28;99755.25;;;14.11;81.07
71567;BME280;59403;47.456;19.120;2022-09-14T04:20:56;99739.88;;;14.07;81.53
71567;BME280;59403;47.456;19.120;2022-09-14T04:23:23;99736.97;;;14.02;81.94
71567;BME280;59403;47.456;19.120;2022-09-14T04:25:50;99735.94;;;14.03;81.87
71567;BME280;59403;47.456;19.120;2022-09-14T04:28:19;99735.13;;;14.02;81.81
71567;BME280;59403;47.456;19.120;2022-09-14T04:30:54;99718.72;;;13.99;82.06
71567;BME280;59403;47.456;19.120;2022-09-14T04:33:21;99711.56;;;13.99;82.06
71567;BME280;59403;47.456;19.120;2022-09-14T04:35:55;99706.88;;;14.01;81.93
71567;BME280;59403;47.456;19.120;2022-09-14T04:38:23;99713.22;;;14.00;82.13
71567;BME280;59403;47.456;19.120;2022-09-14T04:40:50;99709.09;;;13.98;82.15
71567;BME280;59403;47.456;19.120;2022-09-14T04:43:18;99700.06;;;13.99;82.17
71567;BME280;59403;47.456;19.120;2022-09-14T04:45:45;99700.91;;;13.99;82.40
71567;BME280;59403;47.456;19.120;2022-09-14T04:48:12;99713.81;;;14.02;82.18
71567;BME280;59403;47.456;19.120;2022-09-14T04:50:39;99719.78;;;14.04;81.87
71567;BME280;59403;47.456;19.120;2022-09-14T04:53:06;99717.94;;;14.05;81.63
71567;BME280;59403;47.456;19.120;2022-09-14T04:55:33;99710.81;;;14.12;81.37
71567;BME280;59403;47.456;19.120;2022-09-14T04:58:00;99716.59;;;14.15;81.52
71567;BME280;59403;47.456;19.120;2022-09-14T05:00:28;99707.62;;;14.23;81.23
71567;BME280;59403;47.456;19.120;2022-09-14T05:02:55;99701.31;;;14.30;81.14
71567;BME280;59403;47.456;19.120;2022-09-14T05:05:22;99703.00;;;14.38;80.93
71567;BME280;59403;47.456;19.120;2022-09-14T05:07:49;99698.72;;;14.43;80.78
71567;BME280;59403;47.456;19.120;2022-09-14T05:10:16;99704.47;;;14.47;80.30
71567;BME280;59403;47.456;19.120;2022-09-14T05:12:43;99707.16;;;14.53;79.52
71567;BME280;59403;47.456;19.120;2022-09-14T05:15:10;99701.03;;;14.59;78.82
71567;BME280;59403;47.456;19.120;2022-09-14T05:17:38;99709.28;;;14.64;78.05
71567;BME280;59403;47.456;19.120;2022-09-14T05:20:06;99712.72;;;14.65;77.35
71567;BME280;59403;47.456;19.120;2022-09-14T05:22:33;99719.53;;;14.67;78.04
71567;BME280;59403;47.456;19.120;2022-09-14T05:25:00;99721.59;;;14.72;77.62
71567;BME280;59403;47.456;19.120;2022-09-14T05:27:27;99719.34;;;14.75;77.39
71567;BME280;59403;47.456;19.120;2022-09-14T05:29:54;99730.00;;;14.82;76.98
71567;BME280;59403;47.456;19.120;2022-09-14T05:32:21;99726.13;;;14.85;76.66
71567;BME280;59403;47.456;19.120;2022-09-14T05:34:49;99724.94;;;14.87;76.32
71567;BME280;59403;47.456;19.120;2022-09-14T05:37:16;99722.84;;;14.89;76.25
71567;BME280;59403;47.456;19.120;2022-09-14T05:39:42;99716.94;;;14.94;75.87
71567;BME280;59403;47.456;19.120;2022-09-14T05:42:09;99696.87;;;14.98;75.57
71567;BME280;59403;47.456;19.120;2022-09-14T05:44:36;99686.00;;;14.99;75.37
71567;BME280;59403;47.456;19.120;2022-09-14T05:47:03;99683.53;;;15.04;75.20
71567;BME280;59403;47.456;19.120;2022-09-14T05:49:30;99689.50;;;15.06;75.42
71567;BME280;59403;47.456;19.120;2022-09-14T05:51:58;99694.63;;;15.08;75.21
71567;BME280;59403;47.456;19.120;2022-09-14T05:54:25;99694.19;;;15.11;75.13
71567;BME280;59403;47.456;19.120;2022-09-14T05:56:51;99703.84;;;15.12;75.03
71567;BME280;59403;47.456;19.120;2022-09-14T05:59:18;99700.78;;;15.15;74.75
71567;BME280;59403;47.456;19.120;2022-09-14T06:01:45;99702.19;;;15.17;74.73
71567;BME280;59403;47.456;19.120;2022-09-14T06:04:12;99708.16;;;15.13;75.40
71567;BME280;59403;47.456;19.120;2022-09-14T06:06:39;99712.06;;;15.17;75.29
71567;BME280;59403;47.456;19.120;2022-09-14T06:09:07;99725.22;;;15.25;75.02
71567;BME280;59403;47.456;19.120;2022-09-14T06:11:34;99729.34;;;15.34;75.22
71567;BME280;59403;47.456;19.120;2022-09-14T06:14:01;99716.84;;;15.47;74.64
71567;BME280;59403;47.456;19.120;2022-09-14T06:16:29;99710.69;;;15.66;74.02
71567;BME280;59403;47.456;19.120;2022-09-14T06:18:57;99705.94;;;15.75;73.39
71567;BME280;59403;47.456;19.120;2022-09-14T06:21:27;99697.94;;;15.75;73.77
71567;BME280;59403;47.456;19.120;2022-09-14T06:23:54;99699.38;;;15.84;72.88
71567;BME280;59403;47.456;19.120;2022-09-14T06:26:23;99681.72;;;15.76;72.84
71567;BME280;59403;47.456;19.120;2022-09-14T06:28:50;99690.94;;;16.00;72.60
71567;BME280;59403;47.456;19.120;2022-09-14T06:31:17;99699.34;;;16.04;72.80
71567;BME280;59403;47.456;19.120;2022-09-14T06:33:47;99700.75;;;16.13;72.72
71567;BME280;59403;47.456;19.120;2022-09-14T06:36:18;99701.38;;;16.15;72.75
71567;BME280;59403;47.456;19.120;2022-09-14T06:38:46;99704.25;;;16.13;72.99
71567;BME280;59403;47.456;19.120;2022-09-14T06:41:15;99701.78;;;16.12;72.73
71567;BME280;59403;47.456;19.120;2022-09-14T06:43:45;99705.88;;;16.14;72.70
71567;BME280;59403;47.456;19.120;2022-09-14T06:46:14;99721.28;;;16.19;73.05
71567;BME280;59403;47.456;19.120;2022-09-14T06:48:44;99721.25;;;16.32;72.68
71567;BME280;59403;47.456;19.120;2022-09-14T06:51:13;99722.94;;;16.26;72.29
71567;BME280;59403;47.456;19.120;2022-09-14T06:53:41;99725.81;;;16.18;72.93
71567;BME280;59403;47.456;19.120;2022-09-14T06:56:08;99736.09;;;16.15;73.25
71567;BME280;59403;47.456;19.120;2022-09-14T06:58:35;99749.47;;;16.08;73.65
71567;BME280;59403;47.456;19.120;2022-09-14T07:01:05;99740.22;;;16.04;73.85
71567;BME280;59403;47.456;19.120;2022-09-14T07:03:35;99726.25;;;16.02;74.05
71567;BME280;59403;47.456;19.120;2022-09-14T07:06:03;99727.72;;;15.98;74.14
71567;BME280;59403;47.456;19.120;2022-09-14T07:08:31;99728.94;;;15.96;74.24
71567;BME280;59403;47.456;19.120;2022-09-14T07:10:59;99726.69;;;15.93;74.56
71567;BME280;59403;47.456;19.120;2022-09-14T07:13:27;99724.03;;;15.86;75.42
71567;BME280;59403;47.456;19.120;2022-09-14T07:15:54;99702.25;;;15.82;76.07
71567;BME280;59403;47.456;19.120;2022-09-14T07:18:29;99695.03;;;15.83;76.16
71567;BME280;59403;47.456;19.120;2022-09-14T07:21:01;99702.66;;;15.79;77.31
71567;BME280;59403;47.456;19.120;2022-09-14T07:23:28;99687.47;;;15.73;78.72
71567;BME280;59403;47.456;19.120;2022-09-14T07:26:00;99698.16;;;15.73;78.28
71567;BME280;59403;47.456;19.120;2022-09-14T07:28:27;99708.00;;;15.73;80.84
71567;BME280;59403;47.456;19.120;2022-09-14T07:30:54;99705.97;;;15.68;81.01
71567;BME280;59403;47.456;19.120;2022-09-14T07:33:21;99719.09;;;15.76;80.43
71567;BME280;59403;47.456;19.120;2022-09-14T07:35:49;99717.88;;;15.79;80.08
71567;BME280;59403;47.456;19.120;2022-09-14T07:38:17;99719.50;;;15.80;81.60
71567;BME280;59403;47.456;19.120;2022-09-14T07:40:44;99724.00;;;15.79;81.51
71567;BME280;59403;47.456;19.120;2022-09-14T07:43:11;99709.22;;;15.83;81.72
71567;BME280;59403;47.456;19.120;2022-09-14T07:45:38;99708.41;;;15.89;81.73
71567;BME280;59403;47.456;19.120;2022-09-14T07:48:05;99710.03;;;16.04;81.97
71567;BME280;59403;47.456;19.120;2022-09-14T07:50:32;99722.12;;;16.13;81.84
71567;BME280;59403;47.456;19.120;2022-09-14T07:53:00;99728.28;;;16.20;82.88
71567;BME280;59403;47.456;19.120;2022-09-14T07:55:27;99706.28;;;16.24;82.20
71567;BME280;59403;47.456;19.120;2022-09-14T07:57:54;99700.72;;;16.26;81.78
71567;BME280;59403;47.456;19.120;2022-09-14T08:00:21;99700.72;;;16.26;82.08
71567;BME280;59403;47.456;19.120;2022-09-14T08:02:51;99698.88;;;16.26;82.00
71567;BME280;59403;47.456;19.120;2022-09-14T08:05:18;99689.00;;;16.27;82.16
71567;BME280;59403;47.456;19.120;2022-09-14T08:07:45;99699.25;;;16.30;81.87
71567;BME280;59403;47.456;19.120;2022-09-14T08:10:13;99701.31;;;16.34;81.95
71567;BME280;59403;47.456;19.120;2022-09-14T08:12:40;99697.78;;;16.40;82.37
71567;BME280;59403;47.456;19.120;2022-09-14T08:15:08;99684.03;;;16.43;81.81
71567;BME280;59403;47.456;19.120;2022-09-14T08:17:37;99675.75;;;16.58;81.76
71567;BME280;59403;47.456;19.120;2022-09-14T08:20:05;99654.75;;;16.61;81.51
71567;BME280;59403;47.456;19.120;2022-09-14T08:22:32;99647.34;;;16.63;82.15
71567;BME280;59403;47.456;19.120;2022-09-14T08:24:58;99653.56;;;16.57;82.78
71567;BME280;59403;47.456;19.120;2022-09-14T08:27:27;99677.81;;;16.56;82.95
71567;BME280;59403;47.456;19.120;2022-09-14T08:29:54;99683.53;;;16.59;82.75
71567;BME280;59403;47.456;19.120;2022-09-14T08:32:20;99668.09;;;16.68;82.58
71567;BME280;59403;47.456;19.120;2022-09-14T08:34:47;99679.75;;;16.80;82.21
71567;BME280;59403;47.456;19.120;2022-09-14T08:37:16;99679.66;;;16.93;81.74
71567;BME280;59403;47.456;19.120;2022-09-14T08:39:43;99668.28;;;17.04;81.62
71567;BME280;59403;47.456;19.120;2022-09-14T08:42:13;99663.28;;;17.14;82.73
71567;BME280;59403;47.456;19.120;2022-09-14T08:44:45;99666.06;;;17.26;81.72
71567;BME280;59403;47.456;19.120;2022-09-14T08:47:16;99668.72;;;17.32;80.71
71567;BME280;59403;47.456;19.120;2022-09-14T08:49:46;99663.19;;;17.52;80.64
71567;BME280;59403;47.456;19.120;2022-09-14T08:52:21;99661.56;;;17.75;79.83
71567;BME280;59403;47.456;19.120;2022-09-14T08:54:52;99660.91;;;18.16;78.77
71567;BME280;59403;47.456;19.120;2022-09-14T08:57:26;99660.97;;;18.09;77.84
71567;BME280;59403;47.456;19.120;2022-09-14T09:00:03;99655.63;;;18.09;76.45
71567;BME280;59403;47.456;19.120;2022-09-14T09:02:39;99650.56;;;18.20;77.01
71567;BME280;59403;47.456;19.120;2022-09-14T09:05:22;99646.75;;;18.27;76.46
71567;BME280;59403;47.456;19.120;2022-09-14T09:08:02;99644.31;;;18.44;76.42
71567;BME280;59403;47.456;19.120;2022-09-14T09:10:32;99647.28;;;18.54;77.01
71567;BME280;59403;47.456;19.120;2022-09-14T09:13:03;99648.28;;;18.41;78.04
71567;BME280;59403;47.456;19.120;2022-09-14T09:15:36;99665.25;;;18.53;77.87
71567;BME280;59403;47.456;19.120;2022-09-14T09:18:08;99656.63;;;18.63;77.24
71567;BME280;59403;47.456;19.120;2022-09-14T09:20:41;99651.37;;;18.56;77.24
71567;BME280;59403;47.456;19.120;2022-09-14T09:23:12;99641.75;;;18.67;77.09
71567;BME280;59403;47.456;19.120;2022-09-14T09:25:50;99654.16;;;18.79;76.72
71567;BME280;59403;47.456;19.120;2022-09-14T09:28:19;99663.19;;;18.96;76.85
71567;BME280;59403;47.456;19.120;2022-09-14T09:30:49;99680.25;;;19.02;75.92
71567;BME280;59403;47.456;19.120;2022-09-14T09:33:20;99682.72;;;19.15;75.13
71567;BME280;59403;47.456;19.120;2022-09-14T09:35:48;99685.78;;;19.18;76.18
71567;BME280;59403;47.456;19.120;2022-09-14T09:38:17;99687.19;;;19.21;75.67
71567;BME280;59403;47.456;19.120;2022-09-14T09:40:47;99695.59;;;19.24;74.96
71567;BME280;59403;47.456;19.120;2022-09-14T09:43:17;99699.28;;;19.30;75.17
71567;BME280;59403;47.456;19.120;2022-09-14T09:46:03;99705.72;;;19.52;74.61
71567;BME280;59403;47.456;19.120;2022-09-14T09:48:39;99708.53;;;19.57;74.41
71567;BME280;59403;47.456;19.120;2022-09-14T09:51:10;99700.94;;;19.66;74.66
71567;BME280;59403;47.456;19.120;2022-09-14T09:53:45;99693.69;;;19.55;73.45
71567;BME280;59403;47.456;19.120;2022-09-14T09:56:16;99690.44;;;19.64;73.95
71567;BME280;59403;47.456;19.120;2022-09-14T09:58:44;99693.59;;;19.73;74.19
71567;BME280;59403;47.456;19.120;2022-09-14T10:01:20;99703.28;;;19.74;73.65
71567;BME280;59403;47.456;19.120;2022-09-14T10:04:00;99697.34;;;19.72;72.97
71567;BME280;59403;47.456;19.120;2022-09-14T10:06:28;99693.12;;;19.53;73.23
71567;BME280;59403;47.456;19.120;2022-09-14T10:08:56;99699.78;;;19.50;75.18
71567;BME280;59403;47.456;19.120;2022-09-14T10:11:29;99697.78;;;19.57;74.15
71567;BME280;59403;47.456;19.120;2022-09-14T10:13:58;99704.81;;;19.70;74.91
71567;BME280;59403;47.456;19.120;2022-09-14T10:16:32;99711.13;;;19.87;72.77
71567;BME280;59403;47.456;19.120;2022-09-14T10:19:01;99715.47;;;19.99;72.93
71567;BME280;59403;47.456;19.120;2022-09-14T10:21:28;99720.84;;;20.11;72.52
71567;BME280;59403;47.456;19.120;2022-09-14T10:24:05;99723.53;;;20.22;72.48
71567;BME280;59403;47.456;19.120;2022-09-14T10:26:34;99717.56;;;20.32;72.72
71567;BME280;59403;47.456;19.120;2022-09-14T10:29:27;99708.31;;;20.40;71.85
71567;BME280;59403;47.456;19.120;2022-09-14T10:32:00;99700.03;;;20.29;71.58
71567;BME280;59403;47.456;19.120;2022-09-14T10:34:29;99697.22;;;20.36;73.16
71567;BME280;59403;47.456;19.120;2022-09-14T10:37:05;99693.31;;;20.44;72.05
71567;BME280;59403;47.456;19.120;2022-09-14T10:39:42;99688.53;;;20.57;71.75
71567;BME280;59403;47.456;19.120;2022-09-14T10:42:16;99680.16;;;20.70;71.40
71567;BME280;59403;47.456;19.120;2022-09-14T10:44:58;99674.38;;;20.78;71.30
71567;BME280;59403;47.456;19.120;2022-09-14T10:48:03;99681.91;;;20.76;71.84
71567;BME280;59403;47.456;19.120;2022-09-14T10:50:45;99683.78;;;20.76;72.72
71567;BME280;59403;47.456;19.120;2022-09-14T10:53:30;99676.06;;;20.68;72.09
71567;BME280;59403;47.456;19.120;2022-09-14T10:56:01;99672.75;;;20.77;72.04
71567;BME280;59403;47.456;19.120;2022-09-14T10:58:58;99678.12;;;20.77;71.94
71567;BME280;59403;47.456;19.120;2022-09-14T11:04:48;99676.81;;;20.80;71.90
71567;BME280;59403;47.456;19.120;2022-09-14T11:07:24;99679.31;;;20.81;71.67
71567;BME280;59403;47.456;19.120;2022-09-14T11:09:58;99678.97;;;20.78;71.89
71567;BME280;59403;47.456;19.120;2022-09-14T11:12:32;99680.84;;;20.77;72.05
71567;BME280;59403;47.456;19.120;2022-09-14T11:15:18;99678.22;;;20.82;72.77
71567;BME280;59403;47.456;19.120;2022-09-14T11:17:58;99681.31;;;20.74;72.71
71567;BME280;59403;47.456;19.120;2022-09-14T11:20:36;99667.13;;;20.79;72.48
71567;BME280;59403;47.456;19.120;2022-09-14T11:23:17;99662.91;;;20.83;72.13
71567;BME280;59403;47.456;19.120;2022-09-14T11:25:53;99659.56;;;20.92;72.01
71567;BME280;59403;47.456;19.120;2022-09-14T11:28:25;99645.31;;;20.92;72.65
71567;BME280;59403;47.456;19.120;2022-09-14T11:30:56;99648.47;;;20.89;72.51
71567;BME280;59403;47.456;19.120;2022-09-14T11:33:36;99647.66;;;20.88;72.84
71567;BME280;59403;47.456;19.120;2022-09-14T11:36:14;99647.72;;;20.77;73.04
71567;BME280;59403;47.456;19.120;2022-09-14T11:38:45;99642.91;;;20.79;73.05
71567;BME280;59403;47.456;19.120;2022-09-14T11:41:20;99640.63;;;20.71;73.11
71567;BME280;59403;47.456;19.120;2022-09-14T11:43:52;99647.12;;;20.75;73.92
71567;BME280;59403;47.456;19.120;2022-09-14T11:46:24;99646.75;;;20.83;73.05
71567;BME280;59403;47.456;19.120;2022-09-14T11:48:58;99634.75;;;20.90;72.70
71567;BME280;59403;47.456;19.120;2022-09-14T11:51:31;99629.97;;;20.92;72.44
71567;BME280;59403;47.456;19.120;2022-09-14T11:54:00;99614.00;;;21.02;72.43
71567;BME280;59403;47.456;19.120;2022-09-14T11:56:28;99601.97;;;21.21;71.58
71567;BME280;59403;47.456;19.120;2022-09-14T11:59:00;99617.97;;;21.28;71.71
71567;BME280;59403;47.456;19.120;2022-09-14T12:01:31;99619.34;;;21.30;71.02
71567;BME280;59403;47.456;19.120;2022-09-14T12:06:54;99631.34;;;21.39;71.09
71567;BME280;59403;47.456;19.120;2022-09-14T12:09:38;99624.31;;;21.55;70.22
71567;BME280;59403;47.456;19.120;2022-09-14T12:15:18;99619.75;;;21.56;69.91
71567;BME280;59403;47.456;19.120;2022-09-14T12:17:47;99613.41;;;21.67;70.04
71567;BME280;59403;47.456;19.120;2022-09-14T12:20:33;99615.06;;;21.84;69.83
71567;BME280;59403;47.456;19.120;2022-09-14T12:23:17;99607.34;;;21.93;69.65
71567;BME280;59403;47.456;19.120;2022-09-14T12:25:54;99595.56;;;21.99;68.79
71567;BME280;59403;47.456;19.120;2022-09-14T12:28:38;99594.59;;;22.05;68.10
71567;BME280;59403;47.456;19.120;2022-09-14T12:31:10;99592.81;;;22.15;68.31
71567;BME280;59403;47.456;19.120;2022-09-14T12:33:42;99594.75;;;22.20;67.74
71567;BME280;59403;47.456;19.120;2022-09-14T12:36:54;99599.66;;;22.23;68.37
71567;BME280;59403;47.456;19.120;2022-09-14T12:39:19;99598.97;;;22.32;68.32
71567;BME280;59403;47.456;19.120;2022-09-14T12:42:02;99584.47;;;22.60;67.90
71567;BME280;59403;47.456;19.120;2022-09-14T12:44:32;99584.41;;;22.55;66.15
71567;BME280;59403;47.456;19.120;2022-09-14T12:50:15;99573.44;;;22.67;66.22
71567;BME280;59403;47.456;19.120;2022-09-14T12:52:52;99571.88;;;22.71;66.45
71567;BME280;59403;47.456;19.120;2022-09-14T12:55:59;99571.44;;;22.84;66.10
71567;BME280;59403;47.456;19.120;2022-09-14T12:58:46;99556.06;;;22.84;66.98
71567;BME280;59403;47.456;19.120;2022-09-14T13:01:37;99551.06;;;22.71;65.77
71567;BME280;59403;47.456;19.120;2022-09-14T13:04:12;99538.47;;;22.82;65.05
71567;BME280;59403;47.456;19.120;2022-09-14T13:06:42;99540.91;;;22.83;65.59
71567;BME280;59403;47.456;19.120;2022-09-14T13:09:16;99540.75;;;22.63;66.28
71567;BME280;59403;47.456;19.120;2022-09-14T13:11:52;99536.22;;;22.69;66.38
71567;BME280;59403;47.456;19.120;2022-09-14T13:14:21;99533.56;;;22.74;65.64
71567;BME280;59403;47.456;19.120;2022-09-14T13:16:50;99529.66;;;22.91;65.58
71567;BME280;59403;47.456;19.120;2022-09-14T13:19:23;99525.66;;;22.99;64.83
71567;BME280;59403;47.456;19.120;2022-09-14T13:21:53;99530.59;;;23.07;64.78
71567;BME280;59403;47.456;19.120;2022-09-14T13:24:28;99531.25;;;23.24;65.42
71567;BME280;59403;47.456;19.120;2022-09-14T13:26:58;99524.34;;;23.01;65.83
71567;BME280;59403;47.456;19.120;2022-09-14T13:29:26;99534.28;;;22.96;65.44